createdAt,value
2018-12-23T00:01:45.220Z,99590.28
2018-12-23T00:04:16.611Z,99586.34
2018-12-23T00:06:48.289Z,99579.35
2018-12-23T00:09:20.180Z,99584.75
2018-12-23T00:11:52.024Z,99584.95
2018-12-23T00:14:23.916Z,99586.08
2018-12-23T00:16:55.539Z,99591.77
2018-12-23T00:19:27.171Z,99575.80
2018-12-23T00:21:59.433Z,99571.78
2018-12-23T00:24:31.817Z,99565.80
2018-12-23T00:27:03.243Z,99562.72
2018-12-23T00:29:34.479Z,99555.97
2018-12-23T00:32:05.858Z,99562.05
2018-12-23T00:34:38.056Z,99562.62
2018-12-23T00:37:09.291Z,99564.67
2018-12-23T00:39:40.691Z,99567.58
2018-12-23T00:42:11.827Z,99560.76
2018-12-23T00:44:43.070Z,99564.67
2018-12-23T00:47:14.064Z,99561.02
2018-12-23T00:49:45.061Z,99564.30
2018-12-23T00:52:16.903Z,99559.73
2018-12-23T00:54:48.105Z,99565.98
2018-12-23T00:57:19.362Z,99571.22
2018-12-23T00:59:51.282Z,99575.14
2018-12-23T01:02:22.461Z,99570.08
2018-12-23T01:04:53.538Z,99562.80
2018-12-23T01:07:25.071Z,99567.66
2018-12-23T01:09:56.420Z,99567.85
2018-12-23T01:12:27.600Z,99569.72
2018-12-23T01:14:58.802Z,99578.95
2018-12-23T01:17:29.961Z,99581.66
2018-12-23T01:20:01.333Z,99577.18
2018-12-23T01:22:32.705Z,99581.85
2018-12-23T01:25:04.061Z,99579.61
2018-12-23T01:27:35.153Z,99578.86
2018-12-23T01:30:07.303Z,99578.31
2018-12-23T01:32:38.561Z,99573.64
2018-12-23T01:35:10.519Z,99573.44
2018-12-23T01:37:42.114Z,99581.39
2018-12-23T01:40:14.494Z,99581.48
2018-12-23T01:42:45.599Z,99582.98
2018-12-23T01:45:17.512Z,99585.12
2018-12-23T01:47:48.825Z,99580.82
2018-12-23T01:50:19.992Z,99590.24
2018-12-23T01:52:50.846Z,99592.47
2018-12-23T01:55:21.630Z,99599.39
2018-12-23T01:57:52.426Z,99601.45
2018-12-23T02:00:23.400Z,99601.81
2018-12-23T02:02:54.262Z,99601.45
2018-12-23T02:05:24.937Z,99606.13
2018-12-23T02:07:55.656Z,99609.88
2018-12-23T02:10:26.368Z,99604.45
2018-12-23T02:12:57.283Z,99601.94
2018-12-23T02:15:28.113Z,99600.73
2018-12-23T02:17:58.949Z,99598.47
2018-12-23T02:20:29.741Z,99603.34
2018-12-23T02:23:00.587Z,99602.20
2018-12-23T02:25:32.036Z,99595.27
2018-12-23T02:28:02.915Z,99596.39
2018-12-23T02:30:33.795Z,99591.36
2018-12-23T02:33:04.735Z,99592.77
2018-12-23T02:35:35.822Z,99586.98
2018-12-23T02:38:06.735Z,99590.41
2018-12-23T02:40:37.564Z,99583.52
2018-12-23T02:43:08.276Z,99584.07
2018-12-23T02:45:39.035Z,99588.19
2018-12-23T02:48:09.947Z,99583.70
2018-12-23T02:50:40.833Z,99592.41
2018-12-23T02:53:11.559Z,99592.47
2018-12-23T02:55:42.411Z,99588.55
2018-12-23T02:58:13.283Z,99585.77
2018-12-23T03:00:44.148Z,99586.32
2018-12-23T03:03:14.925Z,99577.53
2018-12-23T03:05:45.639Z,99575.47
2018-12-23T03:08:16.527Z,99568.94
2018-12-23T03:10:47.166Z,99570.73
2018-12-23T03:13:17.954Z,99564.27
2018-12-23T03:15:48.915Z,99564.27
2018-12-23T03:18:19.532Z,99557.73
2018-12-23T03:20:50.148Z,99564.82
2018-12-23T03:23:21.014Z,99560.15
2018-12-23T03:25:51.710Z,99555.77
2018-12-23T03:28:22.303Z,99560.08
2018-12-23T03:30:53.380Z,99551.75
2018-12-23T03:33:24.637Z,99547.01
2018-12-23T03:35:55.616Z,99554.56
2018-12-23T03:38:26.433Z,99549.05
2018-12-23T03:40:57.452Z,99551.66
2018-12-23T03:43:28.280Z,99554.56
2018-12-23T03:45:59.426Z,99556.23
2018-12-23T03:48:30.375Z,99557.92
2018-12-23T03:51:01.167Z,99558.28
2018-12-23T03:53:31.989Z,99561.84
2018-12-23T03:56:02.895Z,99562.77
2018-12-23T03:58:33.802Z,99565.87
2018-12-23T04:01:04.714Z,99564.56
2018-12-23T04:03:35.512Z,99563.16
2018-12-23T04:06:06.339Z,99566.13
2018-12-23T04:08:37.739Z,99567.08
2018-12-23T04:11:08.421Z,99568.39
2018-12-23T04:13:40.024Z,99575.67
2018-12-23T04:16:10.978Z,99575.21
2018-12-23T04:18:41.899Z,99582.56
2018-12-23T04:21:12.460Z,99573.41
2018-12-23T04:23:43.300Z,99583.41
2018-12-23T04:26:14.048Z,99582.66
2018-12-23T04:28:44.808Z,99581.65
2018-12-23T04:31:16.643Z,99584.81
2018-12-23T04:33:47.531Z,99587.73
2018-12-23T04:36:18.153Z,99580.51
2018-12-23T04:38:49.277Z,99579.27
2018-12-23T04:41:20.074Z,99579.08
2018-12-23T04:43:50.945Z,99584.97
2018-12-23T04:46:21.846Z,99580.30
2018-12-23T04:48:52.586Z,99576.02
2018-12-23T04:51:23.369Z,99576.21
2018-12-23T04:53:54.005Z,99574.90
2018-12-23T04:56:24.830Z,99581.53
2018-12-23T04:58:55.467Z,99585.16
2018-12-23T05:01:26.518Z,99585.55
2018-12-23T05:03:57.317Z,99583.32
2018-12-23T05:06:28.177Z,99582.57
2018-12-23T05:08:58.845Z,99579.59
2018-12-23T05:11:29.624Z,99582.18
2018-12-23T05:14:00.394Z,99579.50
2018-12-23T05:16:31.231Z,99579.57
2018-12-23T05:19:01.893Z,99582.28
2018-12-23T05:21:32.883Z,99585.06
2018-12-23T05:24:03.757Z,99586.77
2018-12-23T05:26:34.658Z,99587.67
2018-12-23T05:29:05.731Z,99585.06
2018-12-23T05:31:36.573Z,99583.30
2018-12-23T05:34:07.504Z,99592.45
2018-12-23T05:36:38.128Z,99595.62
2018-12-23T05:39:09.670Z,99600.66
2018-12-23T05:41:40.509Z,99596.17
2018-12-23T05:44:11.168Z,99597.84
2018-12-23T05:46:42.059Z,99606.80
2018-12-23T05:49:12.845Z,99598.75
2018-12-23T05:51:43.586Z,99601.92
2018-12-23T05:54:14.469Z,99605.74
2018-12-23T05:56:45.471Z,99602.84
2018-12-23T05:59:16.265Z,99611.30
2018-12-23T06:01:47.307Z,99610.60
2018-12-23T06:04:18.148Z,99612.46
2018-12-23T06:06:49.168Z,99619.39
2018-12-23T06:09:19.904Z,99621.05
2018-12-23T06:11:51.455Z,99616.77
2018-12-23T06:14:22.594Z,99615.08
2018-12-23T06:16:53.527Z,99623.01
2018-12-23T06:19:24.673Z,99622.16
2018-12-23T06:21:55.512Z,99616.57
2018-12-23T06:24:26.467Z,99615.62
2018-12-23T06:26:57.630Z,99616.77
2018-12-23T06:29:28.286Z,99616.77
2018-12-23T06:31:59.079Z,99616.77
2018-12-23T06:34:29.691Z,99611.61
2018-12-23T06:37:00.497Z,99615.27
2018-12-23T06:39:31.581Z,99624.77
2018-12-23T06:42:02.671Z,99625.72
2018-12-23T06:44:33.712Z,99627.06
2018-12-23T06:47:04.573Z,99631.38
2018-12-23T06:49:36.346Z,99630.34
2018-12-23T06:52:07.443Z,99624.84
2018-12-23T06:54:38.482Z,99627.27
2018-12-23T06:57:09.441Z,99630.27
2018-12-23T06:59:40.428Z,99634.84
2018-12-23T07:02:13.381Z,99642.33
2018-12-23T07:04:45.473Z,99649.68
2018-12-23T07:07:18.707Z,99653.99
2018-12-23T07:09:49.291Z,99657.72
2018-12-23T07:12:20.141Z,99649.33
2018-12-23T07:14:51.057Z,99648.91
2018-12-23T07:17:22.369Z,99647.05
2018-12-23T07:19:53.435Z,99648.27
2018-12-23T07:22:24.309Z,99659.47
2018-12-23T07:24:55.301Z,99671.98
2018-12-23T07:27:26.087Z,99668.66
2018-12-23T07:29:57.208Z,99671.17
2018-12-23T07:32:28.255Z,99672.68
2018-12-23T07:34:59.700Z,99671.67
2018-12-23T07:37:30.527Z,99662.72
2018-12-23T07:40:02.037Z,99662.52
2018-12-23T07:42:33.078Z,99654.51
2018-12-23T07:45:04.923Z,99662.74
2018-12-23T07:47:36.177Z,99669.12
2018-12-23T07:50:07.827Z,99669.88
2018-12-23T07:52:39.020Z,99671.53
2018-12-23T07:55:10.104Z,99676.21
2018-12-23T07:57:41.237Z,99684.64
2018-12-23T08:00:12.803Z,99685.48
2018-12-23T08:02:43.708Z,99690.45
2018-12-23T08:05:14.543Z,99706.05
2018-12-23T08:07:45.620Z,99720.94
2018-12-23T08:10:16.901Z,99716.81
2018-12-23T08:12:48.422Z,99724.01
2018-12-23T08:15:20.464Z,99730.28
2018-12-23T08:17:51.750Z,99728.35
2018-12-23T08:20:23.085Z,99724.13
2018-12-23T08:22:54.690Z,99722.46
2018-12-23T08:25:26.509Z,99717.22
2018-12-23T08:27:58.001Z,99714.59
2018-12-23T08:30:30.605Z,99708.16
2018-12-23T08:33:02.450Z,99709.30
2018-12-23T08:35:35.433Z,99703.85
2018-12-23T08:38:07.678Z,99704.32
2018-12-23T08:40:40.795Z,99707.12
2018-12-23T08:43:14.311Z,99709.02
2018-12-23T08:45:47.681Z,99707.41
2018-12-23T08:48:19.039Z,99712.76
2018-12-23T08:50:51.365Z,99722.68
2018-12-23T08:53:23.190Z,99717.52
2018-12-23T08:55:55.100Z,99715.09
2018-12-23T08:58:26.464Z,99711.06
2018-12-23T09:00:57.582Z,99708.06
2018-12-23T09:03:29.359Z,99704.53
2018-12-23T09:06:00.670Z,99704.72
2018-12-23T09:08:33.116Z,99711.25
2018-12-23T09:11:13.864Z,99719.87
2018-12-23T09:13:46.581Z,99729.12
2018-12-23T09:16:18.157Z,99728.08
2018-12-23T09:18:50.048Z,99734.06
2018-12-23T09:21:22.015Z,99733.15
2018-12-23T09:23:53.459Z,99739.67
2018-12-23T09:26:24.478Z,99736.88
2018-12-23T09:28:56.829Z,99726.69
2018-12-23T09:31:27.865Z,99727.30
2018-12-23T09:33:59.511Z,99723.97
2018-12-23T09:36:31.208Z,99720.05
2018-12-23T09:39:01.978Z,99717.05
2018-12-23T09:41:34.047Z,99722.02
2018-12-23T09:44:05.027Z,99714.73
2018-12-23T09:46:36.530Z,99713.31
2018-12-23T09:49:07.511Z,99725.09
2018-12-23T09:51:38.996Z,99730.34
2018-12-23T09:54:10.794Z,99730.73
2018-12-23T09:56:42.164Z,99732.59
2018-12-23T09:59:13.685Z,99732.02
2018-12-23T10:01:45.921Z,99730.81
2018-12-23T10:04:17.444Z,99723.80
2018-12-23T10:06:49.797Z,99732.38
2018-12-23T10:09:21.948Z,99735.14
2018-12-23T10:11:53.180Z,99734.69
2018-12-23T10:14:24.472Z,99725.20
2018-12-23T10:16:56.366Z,99724.90
2018-12-23T10:19:28.156Z,99714.73
2018-12-23T10:21:59.680Z,99704.41
2018-12-23T10:24:33.992Z,99704.91
2018-12-23T10:27:05.497Z,99712.52
2018-12-23T10:29:36.719Z,99712.14
2018-12-23T10:32:08.218Z,99716.45
2018-12-23T10:34:39.337Z,99711.11
2018-12-23T10:37:11.260Z,99709.22
2018-12-23T10:39:42.766Z,99697.34
2018-12-23T10:42:14.188Z,99681.78
2018-12-23T10:44:45.836Z,99679.21
2018-12-23T10:47:17.740Z,99678.28
2018-12-23T10:49:50.092Z,99687.67
2018-12-23T10:52:22.196Z,99678.74
2018-12-23T10:54:53.215Z,99679.05
2018-12-23T10:57:24.298Z,99672.04
2018-12-23T10:59:55.506Z,99677.66
2018-12-23T11:02:27.385Z,99668.67
2018-12-23T11:04:59.356Z,99656.57
2018-12-23T11:07:31.847Z,99656.17
2018-12-23T11:10:03.701Z,99654.86
2018-12-23T11:12:36.676Z,99649.80
2018-12-23T11:15:11.655Z,99651.84
2018-12-23T11:17:43.880Z,99645.64
2018-12-23T11:20:16.100Z,99645.99
2018-12-23T11:22:48.686Z,99640.68
2018-12-23T11:25:20.839Z,99642.64
2018-12-23T11:27:53.673Z,99635.83
2018-12-23T11:30:25.561Z,99627.37
2018-12-23T11:32:57.245Z,99623.48
2018-12-23T11:35:30.071Z,99623.62
2018-12-23T11:38:02.185Z,99623.06
2018-12-23T11:40:34.847Z,99630.07
2018-12-23T11:43:10.062Z,99627.02
2018-12-23T11:45:41.908Z,99632.81
2018-12-23T11:48:13.486Z,99621.10
2018-12-23T11:50:45.021Z,99624.75
2018-12-23T11:53:16.197Z,99623.28
2018-12-23T11:55:48.692Z,99620.55
2018-12-23T11:58:20.334Z,99620.25
2018-12-23T12:00:51.971Z,99613.09
2018-12-23T12:03:24.228Z,99612.59
2018-12-23T12:05:55.477Z,99617.86
2018-12-23T12:08:27.371Z,99613.77
2018-12-23T12:10:58.812Z,99614.89
2018-12-23T12:13:29.934Z,99618.34
2018-12-23T12:16:00.771Z,99612.54
2018-12-23T12:18:31.707Z,99600.41
2018-12-23T12:21:02.905Z,99602.81
2018-12-23T12:23:34.306Z,99601.64
2018-12-23T12:26:05.626Z,99602.16
2018-12-23T12:28:36.861Z,99594.98
2018-12-23T12:31:08.377Z,99586.81
2018-12-23T12:33:39.796Z,99591.64
2018-12-23T12:36:10.811Z,99590.75
2018-12-23T12:38:42.774Z,99588.59
2018-12-23T12:41:14.275Z,99586.23
2018-12-23T12:43:45.605Z,99574.92
2018-12-23T12:46:16.774Z,99573.97
2018-12-23T12:48:48.765Z,99576.81
2018-12-23T12:51:21.591Z,99570.80
2018-12-23T12:53:53.858Z,99571.60
2018-12-23T12:56:26.661Z,99562.06
2018-12-23T12:58:59.002Z,99559.41
2018-12-23T13:01:31.166Z,99566.52
2018-12-23T13:04:02.259Z,99562.82
2018-12-23T13:06:33.152Z,99555.01
2018-12-23T13:09:05.531Z,99540.25
2018-12-23T13:11:37.499Z,99536.89
2018-12-23T13:14:08.569Z,99539.52
2018-12-23T13:16:40.096Z,99537.65
2018-12-23T13:19:12.457Z,99531.30
2018-12-23T13:21:43.592Z,99522.94
2018-12-23T13:24:15.999Z,99519.32
2018-12-23T13:26:47.671Z,99522.42
2018-12-23T13:29:19.054Z,99531.39
2018-12-23T13:31:51.609Z,99535.41
2018-12-23T13:34:23.388Z,99539.80
2018-12-23T13:36:55.702Z,99543.70
2018-12-23T13:39:27.005Z,99538.84
2018-12-23T13:42:38.110Z,99535.29
2018-12-23T13:46:04.409Z,99531.78
2018-12-23T13:51:00.061Z,99534.91
2018-12-23T13:55:49.590Z,99533.25
2018-12-23T13:58:35.582Z,99529.80
2018-12-23T14:02:23.325Z,99529.23
2018-12-23T14:05:22.626Z,99528.13
2018-12-23T14:08:17.349Z,99516.84
2018-12-23T14:11:58.017Z,99515.31
2018-12-23T14:14:29.373Z,99512.34
2018-12-23T14:17:00.846Z,99516.37
2018-12-23T14:19:32.641Z,99518.27
2018-12-23T14:22:03.559Z,99520.23
2018-12-23T14:24:34.861Z,99511.55
2018-12-23T14:27:06.711Z,99510.80
2018-12-23T14:29:37.783Z,99516.34
2018-12-23T14:32:09.140Z,99518.59
2018-12-23T14:34:40.273Z,99523.09
2018-12-23T14:37:11.537Z,99523.88
2018-12-23T14:39:43.354Z,99521.73
2018-12-23T14:42:14.578Z,99513.87
2018-12-23T14:44:46.831Z,99514.50
2018-12-23T14:47:18.474Z,99517.62
2018-12-23T14:49:50.471Z,99511.51
2018-12-23T14:52:22.019Z,99515.84
2018-12-23T14:54:53.646Z,99521.00
2018-12-23T14:57:25.129Z,99516.58
2018-12-23T14:59:56.469Z,99515.49
2018-12-23T15:02:27.667Z,99512.25
2018-12-23T15:04:59.329Z,99514.16
2018-12-23T15:07:30.428Z,99512.01
2018-12-23T15:10:01.322Z,99515.46
2018-12-23T15:12:32.296Z,99517.47
2018-12-23T15:15:03.131Z,99516.24
2018-12-23T15:17:34.453Z,99507.13
2018-12-23T15:20:06.639Z,99509.92
2018-12-23T15:22:38.027Z,99506.89
2018-12-23T15:25:09.241Z,99522.00
2018-12-23T15:27:40.085Z,99523.11
2018-12-23T15:30:11.605Z,99517.55
2018-12-23T15:32:42.717Z,99513.53
2018-12-23T15:35:14.643Z,99513.57
2018-12-23T15:37:46.216Z,99513.84
2018-12-23T15:40:17.242Z,99513.02
2018-12-23T15:42:51.207Z,99510.72
2018-12-23T15:45:22.588Z,99504.25
2018-12-23T15:47:53.951Z,99508.33
2018-12-23T15:50:24.986Z,99518.61
2018-12-23T15:52:56.791Z,99522.14
2018-12-23T15:55:28.732Z,99519.72
2018-12-23T15:58:38.057Z,99519.14
2018-12-23T16:01:09.785Z,99526.41
2018-12-23T16:03:42.617Z,99526.36
2018-12-23T16:06:14.306Z,99531.09
2018-12-23T16:08:46.020Z,99530.89
2018-12-23T16:11:17.753Z,99530.52
2018-12-23T16:13:49.701Z,99537.67
2018-12-23T16:16:22.692Z,99538.59
2018-12-23T16:18:54.753Z,99539.69
2018-12-23T16:21:26.525Z,99536.59
2018-12-23T16:23:58.182Z,99534.72
2018-12-23T16:26:30.511Z,99532.08
2018-12-23T16:29:02.962Z,99536.29
2018-12-23T16:31:34.888Z,99533.50
2018-12-23T16:34:07.251Z,99536.57
2018-12-23T16:36:39.432Z,99534.53
2018-12-23T16:39:11.775Z,99534.64
2018-12-23T16:41:43.514Z,99535.48
2018-12-23T16:44:15.539Z,99534.18
2018-12-23T16:46:47.385Z,99536.69
2018-12-23T16:49:19.183Z,99533.50
2018-12-23T16:51:51.566Z,99537.80
2018-12-23T16:54:24.179Z,99541.73
2018-12-23T16:56:59.605Z,99543.25
2018-12-23T16:59:32.080Z,99543.89
2018-12-23T17:02:04.327Z,99541.58
2018-12-23T17:04:37.182Z,99541.75
2018-12-23T17:07:09.535Z,99540.27
2018-12-23T17:09:41.649Z,99530.06
2018-12-23T17:12:13.914Z,99531.13
2018-12-23T17:14:48.344Z,99537.90
2018-12-23T17:17:20.175Z,99546.50
2018-12-23T17:19:52.528Z,99557.06
2018-12-23T17:22:24.839Z,99545.89
2018-12-23T17:24:57.156Z,99541.74
2018-12-23T17:27:29.889Z,99541.61
2018-12-23T17:30:02.423Z,99534.70
2018-12-23T17:32:37.726Z,99536.76
2018-12-23T17:35:10.027Z,99523.25
2018-12-23T17:37:43.175Z,99519.78
2018-12-23T17:40:16.583Z,99519.50
2018-12-23T17:42:49.917Z,99517.77
2018-12-23T17:45:22.890Z,99515.89
2018-12-23T17:47:55.151Z,99522.81
2018-12-23T17:50:27.771Z,99518.80
2018-12-23T17:53:01.877Z,99527.67
2018-12-23T17:55:34.814Z,99529.08
2018-12-23T17:58:07.840Z,99535.66
2018-12-23T18:00:40.931Z,99539.00
2018-12-23T18:03:12.671Z,99536.66
2018-12-23T18:05:45.604Z,99546.19
2018-12-23T18:08:17.250Z,99551.37
2018-12-23T18:10:51.925Z,99552.48
2018-12-23T18:13:23.921Z,99550.02
2018-12-23T18:15:57.734Z,99552.34
2018-12-23T18:18:30.334Z,99554.89
2018-12-23T18:21:02.639Z,99550.78
2018-12-23T18:23:36.535Z,99547.00
2018-12-23T18:26:08.543Z,99540.47
2018-12-23T18:28:40.433Z,99540.93
2018-12-23T18:31:12.353Z,99537.80
2018-12-23T18:33:44.267Z,99543.45
2018-12-23T18:36:18.173Z,99529.76
2018-12-23T18:38:50.422Z,99540.44
2018-12-23T18:41:22.981Z,99543.90
2018-12-23T18:43:55.019Z,99547.89
2018-12-23T18:46:26.974Z,99552.98
2018-12-23T18:48:58.736Z,99551.48
2018-12-23T18:51:30.508Z,99558.67
2018-12-23T18:54:02.428Z,99561.91
2018-12-23T18:56:46.922Z,99552.72
2018-12-23T18:59:22.057Z,99554.48
2018-12-23T19:02:09.889Z,99548.86
2018-12-23T19:04:42.228Z,99549.11
2018-12-23T19:07:14.482Z,99550.83
2018-12-23T19:10:17.097Z,99547.33
2018-12-23T19:14:00.454Z,99538.19
2018-12-23T19:17:32.691Z,99540.91
2018-12-23T19:21:16.157Z,99546.69
2018-12-23T19:24:39.471Z,99545.70
2018-12-23T19:28:41.565Z,99546.45
2018-12-23T19:32:18.051Z,99543.77
2018-12-23T19:35:48.308Z,99536.32
2018-12-23T19:39:06.840Z,99531.09
2018-12-23T19:42:29.321Z,99530.83
2018-12-23T19:45:51.097Z,99526.13
2018-12-23T19:49:17.444Z,99528.98
2018-12-23T19:53:03.133Z,99525.26
2018-12-23T19:56:37.001Z,99531.98
2018-12-23T19:59:56.384Z,99523.77
2018-12-23T20:03:19.489Z,99515.98
2018-12-23T20:06:46.146Z,99515.78
2018-12-23T20:10:03.866Z,99510.75
2018-12-23T20:13:45.054Z,99505.19
2018-12-23T20:17:26.557Z,99513.31
2018-12-23T20:21:24.641Z,99520.49
2018-12-23T20:24:43.681Z,99512.92
2018-12-23T20:27:55.141Z,99513.01
2018-12-23T20:31:18.320Z,99498.86
2018-12-23T20:34:59.717Z,99505.23
2018-12-23T20:38:14.797Z,99498.80
2018-12-23T20:42:07.519Z,99501.25
2018-12-23T20:45:47.778Z,99493.88
2018-12-23T20:49:12.888Z,99499.15
2018-12-23T20:53:01.956Z,99498.95
2018-12-23T20:56:34.833Z,99498.30
2018-12-23T20:59:54.413Z,99496.33
2018-12-23T21:03:24.791Z,99494.59
2018-12-23T21:06:49.790Z,99498.70
2018-12-23T21:10:07.614Z,99503.31
2018-12-23T21:13:46.300Z,99504.63
2018-12-23T21:17:16.124Z,99500.80
2018-12-23T21:20:43.075Z,99499.89
2018-12-23T21:24:16.385Z,99507.10
2018-12-23T21:28:07.454Z,99512.77
2018-12-23T21:31:32.266Z,99512.56
2018-12-23T21:34:51.186Z,99513.08
2018-12-23T21:38:29.145Z,99513.41
2018-12-23T21:42:03.130Z,99509.75
2018-12-23T21:45:24.547Z,99502.71
2018-12-23T21:49:07.656Z,99492.52
2018-12-23T21:52:28.268Z,99495.52
2018-12-23T21:56:14.529Z,99496.83
2018-12-23T21:59:43.582Z,99497.73
2018-12-23T22:03:39.352Z,99484.38
2018-12-23T22:07:00.791Z,99487.88
2018-12-23T22:10:42.143Z,99507.13
2018-12-23T22:13:40.772Z,99486.72
2018-12-23T22:16:30.548Z,99489.06
2018-12-23T22:19:09.698Z,99493.35
2018-12-23T22:21:47.419Z,99497.37
2018-12-23T22:24:25.849Z,99497.17
2018-12-23T22:27:05.897Z,99499.92
2018-12-23T22:29:42.511Z,99490.59
2018-12-23T22:32:19.817Z,99490.89
2018-12-23T22:34:55.386Z,99497.55
2018-12-23T22:37:32.498Z,99499.30
2018-12-23T22:40:10.159Z,99497.77
2018-12-23T22:42:48.566Z,99498.62
2018-12-23T22:45:27.490Z,99494.42
2018-12-23T22:48:14.367Z,99488.75
2018-12-23T22:50:55.713Z,99488.42
2018-12-23T22:53:32.949Z,99495.92
2018-12-23T22:56:08.404Z,99499.29
2018-12-23T22:58:47.085Z,99492.28
2018-12-23T23:01:23.446Z,99489.63
2018-12-23T23:03:57.835Z,99488.02
2018-12-23T23:06:32.154Z,99486.86
2018-12-23T23:09:10.679Z,99487.61
2018-12-23T23:11:49.787Z,99475.96
2018-12-23T23:14:23.656Z,99469.11
2018-12-23T23:17:00.000Z,99461.93
2018-12-23T23:19:34.675Z,99451.95
2018-12-23T23:22:09.968Z,99446.08
2018-12-23T23:24:44.855Z,99453.07
2018-12-23T23:27:20.663Z,99450.64
2018-12-23T23:29:55.442Z,99458.28
2018-12-23T23:32:31.701Z,99454.13
2018-12-23T23:35:11.674Z,99450.13
2018-12-23T23:37:47.189Z,99447.16
2018-12-23T23:40:20.870Z,99451.11
2018-12-23T23:42:54.435Z,99443.44
2018-12-23T23:45:30.689Z,99436.65
2018-12-23T23:48:07.650Z,99431.68
2018-12-23T23:50:42.806Z,99432.80
2018-12-23T23:53:18.046Z,99440.08
2018-12-23T23:55:54.082Z,99432.46
2018-12-23T23:58:30.237Z,99441.44
